createdAt,value
2022-09-23T00:01:21.833Z,64.54
2022-09-23T00:03:50.232Z,64.39
2022-09-23T00:06:20.519Z,64.26
2022-09-23T00:08:49.825Z,64.14
2022-09-23T00:11:19.501Z,64.00
2022-09-23T00:13:48.945Z,63.89
2022-09-23T00:16:20.803Z,63.77
2022-09-23T00:18:52.505Z,63.91
2022-09-23T00:21:21.787Z,63.87
2022-09-23T00:23:50.091Z,64.09
2022-09-23T00:26:19.357Z,64.20
2022-09-23T00:28:48.115Z,64.11
2022-09-23T00:31:20.769Z,63.90
2022-09-23T00:33:53.166Z,63.78
2022-09-23T00:36:20.936Z,63.80
2022-09-23T00:38:48.866Z,63.80
2022-09-23T00:41:17.039Z,63.85
2022-09-23T00:43:44.824Z,63.87
2022-09-23T00:46:16.750Z,63.75
2022-09-23T00:48:44.947Z,63.76
2022-09-23T00:51:17.899Z,63.72
2022-09-23T00:53:47.715Z,63.88
2022-09-23T00:56:16.140Z,63.79
2022-09-23T00:58:45.348Z,63.62
2022-09-23T01:01:14.648Z,63.66
2022-09-23T01:03:44.878Z,63.58
2022-09-23T01:06:13.384Z,63.51
2022-09-23T01:08:43.617Z,63.50
2022-09-23T01:11:30.491Z,63.46
2022-09-23T01:14:12.521Z,63.49
2022-09-23T01:17:06.822Z,63.60
2022-09-23T01:19:46.884Z,63.56
2022-09-23T01:22:38.034Z,63.53
2022-09-23T01:25:05.700Z,63.57
2022-09-23T01:27:45.875Z,63.65
2022-09-23T01:30:32.226Z,63.82
2022-09-23T01:33:08.197Z,63.88
2022-09-23T01:35:37.792Z,63.83
2022-09-23T01:38:17.751Z,63.81
2022-09-23T01:41:03.814Z,63.64
2022-09-23T01:43:47.106Z,63.57
2022-09-23T01:46:20.787Z,63.46
2022-09-23T01:48:51.378Z,63.42
2022-09-23T01:51:23.989Z,63.46
2022-09-23T01:53:56.590Z,63.33
2022-09-23T01:56:27.845Z,63.15
2022-09-23T01:59:06.198Z,63.13
2022-09-23T02:01:37.705Z,63.04
2022-09-23T02:04:09.635Z,62.95
2022-09-23T02:06:43.393Z,63.02
2022-09-23T02:09:12.879Z,63.05
2022-09-23T02:11:45.197Z,63.09
2022-09-23T02:14:19.714Z,63.15
2022-09-23T02:16:50.124Z,63.31
2022-09-23T02:19:27.929Z,63.58
2022-09-23T02:22:08.429Z,63.68
2022-09-23T02:24:37.821Z,63.69
2022-09-23T02:27:15.201Z,63.72
2022-09-23T02:29:49.605Z,63.81
2022-09-23T02:32:17.805Z,64.05
2022-09-23T02:35:10.471Z,64.09
2022-09-23T02:37:38.857Z,63.96
2022-09-23T02:40:23.801Z,63.83
2022-09-23T02:43:12.632Z,63.82
2022-09-23T02:45:40.681Z,63.93
2022-09-23T02:48:26.776Z,64.03
2022-09-23T02:50:54.626Z,64.00
2022-09-23T02:53:23.361Z,64.02
2022-09-23T02:55:51.600Z,63.96
2022-09-23T02:58:19.852Z,63.87
2022-09-23T03:01:05.220Z,63.87
2022-09-23T03:03:49.843Z,63.72
2022-09-23T03:06:39.753Z,63.68
2022-09-23T03:09:27.676Z,63.77
2022-09-23T03:12:15.753Z,63.82
2022-09-23T03:15:02.515Z,63.92
2022-09-23T03:17:34.568Z,64.05
2022-09-23T03:20:09.989Z,64.05
2022-09-23T03:22:41.052Z,64.15
2022-09-23T03:25:11.380Z,64.19
2022-09-23T03:27:42.539Z,64.34
2022-09-23T03:30:10.998Z,64.46
2022-09-23T03:32:42.082Z,64.62
2022-09-23T03:35:10.491Z,64.76
2022-09-23T03:37:44.719Z,64.87
2022-09-23T03:40:15.533Z,65.00
2022-09-23T03:42:43.406Z,65.13
2022-09-23T03:45:17.454Z,65.16
2022-09-23T03:47:45.777Z,65.28
2022-09-23T03:50:14.187Z,65.41
2022-09-23T03:52:42.468Z,65.43
2022-09-23T03:55:11.413Z,65.54
2022-09-23T03:57:39.773Z,65.58
2022-09-23T04:00:08.114Z,65.53
2022-09-23T04:02:42.299Z,65.48
2022-09-23T04:05:11.198Z,65.57
2022-09-23T04:07:39.092Z,65.66
2022-09-23T04:10:07.322Z,65.68
2022-09-23T04:12:35.249Z,65.52
2022-09-23T04:15:03.436Z,65.43
2022-09-23T04:17:31.637Z,65.50
2022-09-23T04:19:59.279Z,65.59
2022-09-23T04:22:27.449Z,65.61
2022-09-23T04:24:55.323Z,65.67
2022-09-23T04:27:23.529Z,65.88
2022-09-23T04:29:52.264Z,65.91
2022-09-23T04:32:19.970Z,66.26
2022-09-23T04:34:48.377Z,66.38
2022-09-23T04:37:16.726Z,66.67
2022-09-23T04:39:44.429Z,66.52
2022-09-23T04:42:12.147Z,66.33
2022-09-23T04:44:39.873Z,66.50
2022-09-23T04:47:07.624Z,66.49
2022-09-23T04:49:36.092Z,66.33
2022-09-23T04:52:05.810Z,66.31
2022-09-23T04:54:33.868Z,66.28
2022-09-23T04:57:01.765Z,67.48
2022-09-23T04:59:30.508Z,67.10
2022-09-23T05:01:58.703Z,66.76
2022-09-23T05:04:26.584Z,66.71
2022-09-23T05:06:54.302Z,66.67
2022-09-23T05:09:22.251Z,66.71
2022-09-23T05:11:50.179Z,66.71
2022-09-23T05:14:18.124Z,66.59
2022-09-23T05:16:45.813Z,66.70
2022-09-23T05:19:13.851Z,66.82
2022-09-23T05:21:42.076Z,66.68
2022-09-23T05:24:10.774Z,66.53
2022-09-23T05:26:38.965Z,66.55
2022-09-23T05:29:06.987Z,66.38
2022-09-23T05:31:35.091Z,66.30
2022-09-23T05:34:04.765Z,66.23
2022-09-23T05:36:38.379Z,66.19
2022-09-23T05:39:08.022Z,66.34
2022-09-23T05:41:36.795Z,66.20
2022-09-23T05:44:04.908Z,66.02
2022-09-23T05:46:33.549Z,66.00
